createdAt,value
2016-11-26T00:00:06.198Z,22.2
2016-11-26T00:01:06.234Z,22.2
2016-11-26T00:02:06.249Z,22.21
2016-11-26T00:03:06.283Z,22.21
2016-11-26T00:04:06.664Z,22.18
2016-11-26T00:05:06.045Z,22.15
2016-11-26T00:06:06.674Z,22.21
2016-11-26T00:07:06.691Z,22.14
2016-11-26T00:08:06.419Z,22.15
2016-11-26T00:09:06.752Z,22.14
2016-11-26T00:10:06.472Z,22.1
2016-11-26T00:11:06.510Z,22.12
2016-11-26T00:12:06.525Z,22.12
2016-11-26T00:13:06.860Z,22.14
2016-11-26T00:14:06.887Z,22.1
2016-11-26T00:15:06.608Z,22.06
2016-11-26T00:16:06.637Z,22.12
2016-11-26T00:17:06.662Z,22.14
2016-11-26T00:18:06.994Z,22.14
2016-11-26T00:19:07.032Z,22.12
2016-11-26T00:20:06.448Z,22.1
2016-11-26T00:21:06.781Z,22.12
2016-11-26T00:22:07.110Z,22.15
2016-11-26T00:23:06.542Z,22.02
2016-11-26T00:24:07.168Z,22
2016-11-26T00:25:06.884Z,22.02
2016-11-26T00:26:07.221Z,22.06
2016-11-26T00:27:07.270Z,22.1
2016-11-26T00:28:06.970Z,22.06
2016-11-26T00:29:07.303Z,22.03
2016-11-26T00:30:07.332Z,22.07
2016-11-26T00:31:07.376Z,22.07
2016-11-26T00:32:07.380Z,22.09
2016-11-26T00:33:07.106Z,22.1
2016-11-26T00:34:07.143Z,22.05
2016-11-26T00:35:07.470Z,22.07
2016-11-26T00:36:07.204Z,22.02
2016-11-26T00:37:07.232Z,22.09
2016-11-26T00:38:07.257Z,22.02
2016-11-26T00:39:07.286Z,22.05
2016-11-26T00:40:07.307Z,21.99
2016-11-26T00:41:07.035Z,22
2016-11-26T00:42:07.364Z,22.07
2016-11-26T00:43:07.408Z,22.03
2016-11-26T00:44:07.117Z,22
2016-11-26T00:45:07.154Z,22.09
2016-11-26T00:46:07.479Z,21.96
2016-11-26T00:47:07.504Z,22.09
2016-11-26T00:48:07.220Z,22.05
2016-11-26T00:49:07.256Z,22
2016-11-26T00:50:07.889Z,22.06
2016-11-26T00:51:07.615Z,22.02
2016-11-26T00:52:07.339Z,22.03
2016-11-26T00:53:07.971Z,21.99
2016-11-26T00:54:07.700Z,22.03
2016-11-26T00:55:07.421Z,21.88
2016-11-26T00:56:07.757Z,21.98
2016-11-26T00:57:08.090Z,21.88
2016-11-26T00:58:08.115Z,21.99
2016-11-26T00:59:07.843Z,21.9
2016-11-26T01:00:07.860Z,21.92
2016-11-26T01:01:07.589Z,21.91
2016-11-26T01:02:08.242Z,21.92
2016-11-26T01:03:07.950Z,21.88
2016-11-26T01:04:07.671Z,21.94
2016-11-26T01:05:08.319Z,21.88
2016-11-26T01:06:08.332Z,21.96
2016-11-26T01:07:08.066Z,21.92
2016-11-26T01:08:08.081Z,21.86
2016-11-26T01:09:08.111Z,22
2016-11-26T01:10:08.171Z,21.92
2016-11-26T01:11:08.168Z,21.94
2016-11-26T01:12:08.509Z,21.88
2016-11-26T01:13:07.921Z,21.98
2016-11-26T01:14:07.974Z,21.94
2016-11-26T01:15:08.283Z,21.8
2016-11-26T01:16:08.639Z,21.8
2016-11-26T01:17:08.643Z,21.83
2016-11-26T01:18:08.669Z,21.88
2016-11-26T01:19:08.399Z,21.79
2016-11-26T01:20:08.115Z,21.8
2016-11-26T01:21:08.451Z,21.8
2016-11-26T01:22:08.476Z,21.86
2016-11-26T01:23:08.509Z,21.91
2016-11-26T01:24:08.234Z,21.83
2016-11-26T01:25:08.574Z,21.83
2016-11-26T01:26:08.887Z,21.84
2016-11-26T01:27:08.923Z,21.8
2016-11-26T01:28:08.644Z,21.92
2016-11-26T01:29:08.966Z,21.8
2016-11-26T01:30:08.398Z,21.8
2016-11-26T01:31:08.727Z,21.94
2016-11-26T01:32:08.755Z,21.91
2016-11-26T01:33:08.816Z,21.91
2016-11-26T01:34:08.801Z,21.84
2016-11-26T01:35:09.142Z,21.88
2016-11-26T01:36:09.166Z,21.92
2016-11-26T01:37:08.895Z,21.82
2016-11-26T01:38:08.628Z,21.86
2016-11-26T01:39:08.949Z,21.88
2016-11-26T01:40:08.977Z,21.8
2016-11-26T01:41:09.299Z,21.8
2016-11-26T01:42:09.331Z,21.88
2016-11-26T01:43:09.363Z,21.88
2016-11-26T01:44:08.784Z,21.79
2016-11-26T01:45:08.812Z,21.83
2016-11-26T01:46:09.450Z,21.79
2016-11-26T01:47:08.866Z,21.86
2016-11-26T01:48:08.882Z,21.83
2016-11-26T01:49:08.916Z,21.83
2016-11-26T01:50:09.252Z,21.83
2016-11-26T01:51:09.590Z,21.79
2016-11-26T01:52:09.301Z,21.82
2016-11-26T01:53:09.330Z,21.77
2016-11-26T01:54:09.363Z,21.86
2016-11-26T01:55:09.700Z,21.83
2016-11-26T01:56:09.420Z,21.75
2016-11-26T01:57:09.137Z,21.79
2016-11-26T01:58:09.164Z,21.79
2016-11-26T01:59:09.511Z,21.75
2016-11-26T02:00:09.223Z,21.79
2016-11-26T02:01:09.852Z,21.79
2016-11-26T02:02:09.893Z,21.79
2016-11-26T02:03:09.614Z,21.79
2016-11-26T02:04:09.951Z,21.71
2016-11-26T02:05:09.359Z,21.74
2016-11-26T02:06:09.388Z,21.75
2016-11-26T02:07:09.415Z,21.77
2016-11-26T02:08:09.753Z,21.79
2016-11-26T02:09:10.082Z,21.75
2016-11-26T02:10:10.106Z,21.75
2016-11-26T02:11:09.535Z,21.75
2016-11-26T02:12:10.164Z,21.69
2016-11-26T02:13:10.189Z,21.69
2016-11-26T02:14:09.921Z,21.74
2016-11-26T02:15:09.939Z,21.69
2016-11-26T02:16:09.970Z,21.75
2016-11-26T02:17:10.298Z,21.72
2016-11-26T02:18:09.732Z,21.68
2016-11-26T02:19:10.049Z,21.75
2016-11-26T02:20:10.073Z,21.69
2016-11-26T02:21:10.415Z,21.69
2016-11-26T02:22:10.439Z,21.75
2016-11-26T02:23:10.172Z,21.67
2016-11-26T02:24:10.493Z,21.68
2016-11-26T02:25:10.225Z,21.69
2016-11-26T02:26:10.550Z,21.67
2016-11-26T02:27:09.974Z,21.68
2016-11-26T02:28:10.305Z,21.69
2016-11-26T02:29:10.332Z,21.69
2016-11-26T02:30:10.364Z,21.67
2016-11-26T02:31:10.386Z,21.65
2016-11-26T02:32:10.418Z,21.64
2016-11-26T02:33:10.435Z,21.68
2016-11-26T02:34:10.164Z,21.67
2016-11-26T02:35:10.190Z,21.54
2016-11-26T02:36:10.209Z,21.67
2016-11-26T02:37:10.554Z,21.71
2016-11-26T02:38:10.594Z,21.69
2016-11-26T02:39:10.903Z,21.58
2016-11-26T02:40:10.628Z,21.68
2016-11-26T02:41:10.657Z,21.59
2016-11-26T02:42:10.693Z,21.53
2016-11-26T02:43:10.410Z,21.62
2016-11-26T02:44:10.739Z,21.61
2016-11-26T02:45:10.776Z,21.61
2016-11-26T02:46:10.789Z,21.59
2016-11-26T02:47:10.818Z,21.53
2016-11-26T02:48:10.548Z,21.64
2016-11-26T02:49:11.179Z,21.59
2016-11-26T02:50:10.907Z,21.56
2016-11-26T02:51:10.632Z,21.67
2016-11-26T02:52:11.264Z,21.58
2016-11-26T02:53:10.985Z,21.59
2016-11-26T02:54:11.050Z,21.65
2016-11-26T02:55:11.347Z,21.61
2016-11-26T02:56:11.063Z,21.62
2016-11-26T02:57:11.400Z,21.59
2016-11-26T02:58:11.126Z,21.61
2016-11-26T02:59:11.150Z,21.61
2016-11-26T03:00:11.490Z,21.58
2016-11-26T03:01:11.511Z,21.59
2016-11-26T03:02:11.544Z,21.61
2016-11-26T03:03:11.261Z,21.59
2016-11-26T03:04:11.289Z,21.58
2016-11-26T03:05:11.318Z,21.58
2016-11-26T03:06:11.651Z,21.54
2016-11-26T03:07:11.676Z,21.64
2016-11-26T03:08:11.408Z,21.61
2016-11-26T03:09:11.737Z,21.58
2016-11-26T03:10:11.766Z,21.58
2016-11-26T03:11:11.783Z,21.61
2016-11-26T03:12:11.515Z,21.61
2016-11-26T03:13:11.544Z,21.58
2016-11-26T03:14:11.872Z,21.61
2016-11-26T03:15:11.889Z,21.62
2016-11-26T03:16:11.926Z,21.58
2016-11-26T03:17:11.954Z,21.56
2016-11-26T03:18:11.683Z,21.53
2016-11-26T03:19:11.692Z,21.59
2016-11-26T03:20:11.725Z,21.53
2016-11-26T03:21:12.069Z,21.61
2016-11-26T03:22:11.786Z,21.58
2016-11-26T03:23:11.811Z,21.61
2016-11-26T03:24:11.840Z,21.56
2016-11-26T03:25:11.876Z,21.47
2016-11-26T03:26:11.910Z,21.49
2016-11-26T03:27:11.921Z,21.53
2016-11-26T03:28:11.650Z,21.5
2016-11-26T03:29:11.684Z,21.53
2016-11-26T03:30:12.307Z,21.52
2016-11-26T03:31:12.025Z,21.44
2016-11-26T03:32:11.762Z,21.43
2016-11-26T03:33:11.787Z,21.49
2016-11-26T03:34:12.435Z,21.46
2016-11-26T03:35:12.139Z,21.5
2016-11-26T03:36:12.172Z,21.47
2016-11-26T03:37:12.198Z,21.47
2016-11-26T03:38:12.235Z,21.5
2016-11-26T03:39:12.259Z,21.53
2016-11-26T03:40:12.582Z,21.49
2016-11-26T03:41:12.300Z,21.46
2016-11-26T03:42:12.336Z,21.5
2016-11-26T03:43:12.361Z,21.47
2016-11-26T03:44:12.399Z,21.5
2016-11-26T03:45:12.431Z,21.54
2016-11-26T03:46:12.447Z,21.5
2016-11-26T03:47:12.772Z,21.46
2016-11-26T03:48:12.509Z,21.43
2016-11-26T03:49:12.543Z,21.53
2016-11-26T03:50:12.562Z,21.47
2016-11-26T03:51:12.286Z,21.53
2016-11-26T03:52:12.913Z,21.46
2016-11-26T03:53:12.644Z,21.53
2016-11-26T03:54:12.969Z,21.47
2016-11-26T03:55:12.706Z,21.46
2016-11-26T03:56:12.706Z,21.44
2016-11-26T03:57:12.750Z,21.4
2016-11-26T03:58:12.780Z,21.43
2016-11-26T03:59:12.805Z,21.47
2016-11-26T04:00:12.834Z,21.46
2016-11-26T04:01:13.162Z,21.46
2016-11-26T04:02:12.891Z,21.47
2016-11-26T04:03:13.214Z,21.46
2016-11-26T04:04:12.940Z,21.42
2016-11-26T04:05:13.281Z,21.43
2016-11-26T04:06:12.686Z,21.44
2016-11-26T04:07:13.026Z,21.46
2016-11-26T04:08:13.060Z,21.38
2016-11-26T04:09:13.079Z,21.44
2016-11-26T04:10:12.796Z,21.43
2016-11-26T04:11:13.134Z,21.37
2016-11-26T04:12:12.846Z,21.43
2016-11-26T04:13:13.191Z,21.44
2016-11-26T04:14:13.219Z,21.44
2016-11-26T04:15:12.936Z,21.31
2016-11-26T04:16:12.970Z,21.38
2016-11-26T04:17:13.293Z,21.37
2016-11-26T04:18:13.319Z,21.43
2016-11-26T04:19:13.664Z,21.34
2016-11-26T04:20:13.080Z,21.35
2016-11-26T04:21:13.713Z,21.34
2016-11-26T04:22:13.132Z,21.37
2016-11-26T04:23:13.167Z,21.32
2016-11-26T04:24:13.523Z,21.37
2016-11-26T04:25:13.212Z,21.29
2016-11-26T04:26:13.544Z,21.37
2016-11-26T04:27:13.610Z,21.32
2016-11-26T04:28:13.906Z,21.38
2016-11-26T04:29:13.931Z,21.42
2016-11-26T04:30:13.959Z,21.35
2016-11-26T04:31:13.679Z,21.37
2016-11-26T04:32:13.409Z,21.37
2016-11-26T04:33:14.037Z,21.38
2016-11-26T04:34:13.759Z,21.37
2016-11-26T04:35:14.087Z,21.37
2016-11-26T04:36:14.124Z,21.38
2016-11-26T04:37:13.549Z,21.37
2016-11-26T04:38:14.177Z,21.37
2016-11-26T04:39:13.898Z,21.38
2016-11-26T04:40:14.227Z,21.34
2016-11-26T04:41:13.964Z,21.32
2016-11-26T04:42:14.280Z,21.35
2016-11-26T04:43:14.009Z,21.35
2016-11-26T04:44:14.045Z,21.34
2016-11-26T04:45:14.067Z,21.4
2016-11-26T04:46:14.436Z,21.42
2016-11-26T04:47:14.432Z,21.31
2016-11-26T04:48:13.852Z,21.4
2016-11-26T04:49:13.901Z,21.37
2016-11-26T04:50:14.514Z,21.31
2016-11-26T04:51:14.235Z,21.28
2016-11-26T04:52:13.956Z,21.35
2016-11-26T04:53:14.288Z,21.4
2016-11-26T04:54:14.605Z,21.32
2016-11-26T04:55:14.354Z,21.31
2016-11-26T04:56:14.671Z,21.27
2016-11-26T04:57:14.696Z,21.31
2016-11-26T04:58:14.725Z,21.38
2016-11-26T04:59:14.457Z,21.29
2016-11-26T05:00:14.781Z,21.28
2016-11-26T05:01:14.808Z,21.31
2016-11-26T05:02:14.831Z,21.34
2016-11-26T05:03:14.560Z,21.29
2016-11-26T05:04:14.592Z,21.34
2016-11-26T05:05:14.613Z,21.38
2016-11-26T05:06:14.647Z,21.35
2016-11-26T05:07:14.975Z,21.32
2016-11-26T05:08:14.699Z,21.32
2016-11-26T05:09:15.024Z,21.32
2016-11-26T05:10:14.450Z,21.32
2016-11-26T05:11:14.778Z,21.24
2016-11-26T05:12:15.110Z,21.34
2016-11-26T05:13:14.531Z,21.21
2016-11-26T05:14:15.164Z,21.29
2016-11-26T05:15:15.189Z,21.24
2016-11-26T05:16:14.902Z,21.29
2016-11-26T05:17:14.939Z,21.34
2016-11-26T05:18:14.667Z,21.24
2016-11-26T05:19:14.697Z,21.35
2016-11-26T05:20:15.021Z,21.25
2016-11-26T05:21:14.745Z,21.24
2016-11-26T05:22:15.382Z,21.31
2016-11-26T05:23:15.108Z,21.21
2016-11-26T05:24:15.128Z,21.31
2016-11-26T05:25:15.476Z,21.22
2016-11-26T05:26:15.185Z,21.28
2016-11-26T05:27:15.214Z,21.21
2016-11-26T05:28:15.542Z,21.24
2016-11-26T05:29:15.267Z,21.34
2016-11-26T05:30:15.300Z,21.21
2016-11-26T05:31:15.326Z,21.22
2016-11-26T05:32:15.045Z,21.24
2016-11-26T05:33:15.386Z,21.24
2016-11-26T05:34:15.403Z,21.25
2016-11-26T05:35:15.124Z,21.27
2016-11-26T05:36:15.157Z,21.31
2016-11-26T05:37:15.513Z,21.24
2016-11-26T05:38:15.513Z,21.42
2016-11-26T05:39:15.846Z,21.32
2016-11-26T05:40:15.267Z,21.28
2016-11-26T05:41:15.907Z,21.29
2016-11-26T05:42:15.941Z,21.37
2016-11-26T05:43:15.657Z,21.37
2016-11-26T05:44:15.675Z,21.34
2016-11-26T05:45:16.007Z,21.34
2016-11-26T05:46:15.736Z,21.37
2016-11-26T05:47:16.060Z,21.35
2016-11-26T05:48:16.077Z,21.32
2016-11-26T05:49:15.826Z,21.37
2016-11-26T05:50:15.854Z,21.37
2016-11-26T05:51:16.179Z,21.4
2016-11-26T05:52:15.587Z,21.47
2016-11-26T05:53:16.232Z,21.4
2016-11-26T05:54:16.262Z,21.49
2016-11-26T05:55:15.983Z,21.49
2016-11-26T05:56:16.311Z,21.44
2016-11-26T05:57:16.332Z,21.5
2016-11-26T05:58:16.400Z,21.47
2016-11-26T05:59:16.086Z,21.58
2016-11-26T06:00:15.810Z,21.54
2016-11-26T06:01:16.446Z,21.54
2016-11-26T06:02:16.479Z,21.54
2016-11-26T06:03:16.496Z,21.54
2016-11-26T06:04:16.529Z,21.58
2016-11-26T06:05:16.562Z,21.56
2016-11-26T06:06:16.274Z,21.56
2016-11-26T06:07:16.603Z,21.59
2016-11-26T06:08:16.340Z,21.61
2016-11-26T06:09:16.664Z,21.67
2016-11-26T06:10:16.706Z,21.67
2016-11-26T06:11:16.426Z,21.62
2016-11-26T06:12:16.448Z,21.67
2016-11-26T06:13:16.779Z,21.69
2016-11-26T06:14:16.496Z,21.67
2016-11-26T06:15:16.520Z,21.68
2016-11-26T06:16:16.557Z,21.69
2016-11-26T06:17:16.882Z,21.74
2016-11-26T06:18:16.611Z,21.72
2016-11-26T06:19:16.339Z,21.74
2016-11-26T06:20:16.972Z,21.77
2016-11-26T06:21:16.689Z,21.75
2016-11-26T06:22:16.718Z,21.83
2016-11-26T06:23:17.046Z,21.8
2016-11-26T06:24:16.775Z,21.83
2016-11-26T06:25:17.103Z,21.8
2016-11-26T06:26:16.828Z,21.83
2016-11-26T06:27:17.164Z,21.83
2016-11-26T06:28:16.880Z,21.8
2016-11-26T06:29:16.934Z,21.79
2016-11-26T06:30:17.242Z,21.84
2016-11-26T06:31:16.659Z,21.86
2016-11-26T06:32:17.292Z,21.8
2016-11-26T06:33:17.015Z,21.84
2016-11-26T06:34:17.050Z,21.9
2016-11-26T06:35:17.076Z,21.8
2016-11-26T06:36:17.414Z,21.98
2016-11-26T06:37:17.132Z,21.82
2016-11-26T06:38:17.165Z,21.98
2016-11-26T06:39:16.877Z,21.94
2016-11-26T06:40:16.906Z,21.94
2016-11-26T06:41:17.243Z,21.94
2016-11-26T06:42:17.576Z,21.84
2016-11-26T06:43:17.607Z,21.88
2016-11-26T06:44:17.621Z,22
2016-11-26T06:45:17.354Z,21.92
2016-11-26T06:46:17.382Z,21.98
2016-11-26T06:47:17.429Z,22.06
2016-11-26T06:48:17.737Z,21.94
2016-11-26T06:49:17.160Z,21.99
2016-11-26T06:50:17.797Z,22.03
2016-11-26T06:51:17.513Z,22.02
2016-11-26T06:52:17.551Z,22.05
2016-11-26T06:53:17.267Z,21.96
2016-11-26T06:54:17.912Z,22.05
2016-11-26T06:55:17.936Z,22.14
2016-11-26T06:56:17.653Z,22.07
2016-11-26T06:57:18.010Z,22.03
2016-11-26T06:58:17.411Z,22.03
2016-11-26T06:59:17.439Z,22.1
2016-11-26T07:00:17.764Z,22
2016-11-26T07:01:17.789Z,22.07
2016-11-26T07:02:17.825Z,22.03
2016-11-26T07:03:17.538Z,22.05
2016-11-26T07:04:18.187Z,22.06
2016-11-26T07:05:17.903Z,22.03
2016-11-26T07:06:18.225Z,22.05
2016-11-26T07:07:18.273Z,22
2016-11-26T07:08:17.985Z,22.1
2016-11-26T07:09:18.315Z,22.07
2016-11-26T07:10:18.042Z,22.07
2016-11-26T07:11:17.772Z,22.09
2016-11-26T07:12:18.097Z,22.09
2016-11-26T07:13:18.433Z,22
2016-11-26T07:14:18.462Z,22.05
2016-11-26T07:15:18.186Z,22.07
2016-11-26T07:16:18.204Z,22.05
2016-11-26T07:17:17.935Z,22.03
2016-11-26T07:18:18.573Z,22.09
2016-11-26T07:19:17.993Z,22.05
2016-11-26T07:20:18.621Z,22.09
2016-11-26T07:21:18.663Z,22.06
2016-11-26T07:22:18.383Z,22.1
2016-11-26T07:23:18.409Z,22.03
2016-11-26T07:24:18.425Z,22.06
2016-11-26T07:25:18.457Z,22.05
2016-11-26T07:26:18.794Z,22.07
2016-11-26T07:27:18.211Z,22.05
2016-11-26T07:28:18.535Z,22.09
2016-11-26T07:29:18.568Z,22.02
2016-11-26T07:30:18.600Z,22.06
2016-11-26T07:31:18.926Z,22.07
2016-11-26T07:32:18.649Z,22.03
2016-11-26T07:33:18.993Z,22.02
2016-11-26T07:34:18.704Z,22.02
2016-11-26T07:35:18.739Z,22.1
2016-11-26T07:36:18.760Z,22.06
2016-11-26T07:37:18.786Z,22
2016-11-26T07:38:18.824Z,22.03
2016-11-26T07:39:19.147Z,22.07
2016-11-26T07:40:18.868Z,22.09
2016-11-26T07:41:18.928Z,22.1
2016-11-26T07:42:18.621Z,22.03
2016-11-26T07:43:19.258Z,22.05
2016-11-26T07:44:18.680Z,22.06
2016-11-26T07:45:19.007Z,22.06
2016-11-26T07:46:19.344Z,22.1
2016-11-26T07:47:19.371Z,22.03
2016-11-26T07:48:19.394Z,22.06
2016-11-26T07:49:19.121Z,22.02
2016-11-26T07:50:19.150Z,22.02
2016-11-26T07:51:19.183Z,22.05
2016-11-26T07:52:19.512Z,22.05
2016-11-26T07:53:18.934Z,22.02
2016-11-26T07:54:19.253Z,22.07
2016-11-26T07:55:19.301Z,21.96
2016-11-26T07:56:19.311Z,22
2016-11-26T07:57:19.349Z,22.05
2016-11-26T07:58:19.380Z,22.06
2016-11-26T07:59:19.705Z,22.05
2016-11-26T08:00:19.730Z,22.02
2016-11-26T08:01:19.455Z,22.02
2016-11-26T08:02:19.491Z,22.06
2016-11-26T08:03:19.208Z,22.06
2016-11-26T08:04:19.533Z,22.05
2016-11-26T08:05:19.864Z,22.09
2016-11-26T08:06:19.902Z,22.03
2016-11-26T08:07:19.623Z,21.99
2016-11-26T08:08:19.644Z,21.99
2016-11-26T08:09:19.989Z,22.09
2016-11-26T08:10:19.701Z,22.07
2016-11-26T08:11:19.734Z,22.1
2016-11-26T08:12:19.755Z,21.99
2016-11-26T08:13:20.088Z,22.06
2016-11-26T08:14:20.124Z,21.98
2016-11-26T08:15:20.144Z,22.02
2016-11-26T08:16:19.570Z,22
2016-11-26T08:17:19.898Z,22.02
2016-11-26T08:18:20.234Z,22.03
2016-11-26T08:19:20.264Z,22
2016-11-26T08:20:19.988Z,21.92
2016-11-26T08:21:20.049Z,21.99
2016-11-26T08:22:20.030Z,22.03
2016-11-26T08:23:20.071Z,21.99
2016-11-26T08:24:19.788Z,21.9
2016-11-26T08:25:20.432Z,21.92
2016-11-26T08:26:20.457Z,21.88
2016-11-26T08:27:20.178Z,21.9
2016-11-26T08:28:20.505Z,21.84
2016-11-26T08:29:20.530Z,21.91
2016-11-26T08:30:20.268Z,21.92
2016-11-26T08:31:20.597Z,21.88
2016-11-26T08:32:20.625Z,21.98
2016-11-26T08:33:20.334Z,21.94
2016-11-26T08:34:20.383Z,21.86
2016-11-26T08:35:20.403Z,21.92
2016-11-26T08:36:20.724Z,21.98
2016-11-26T08:37:20.457Z,21.92
2016-11-26T08:38:20.490Z,21.92
2016-11-26T08:39:20.810Z,21.91
2016-11-26T08:40:20.543Z,21.9
2016-11-26T08:41:20.579Z,21.94
2016-11-26T08:42:20.589Z,21.92
2016-11-26T08:43:20.931Z,21.84
2016-11-26T08:44:20.954Z,21.96
2016-11-26T08:45:20.382Z,21.9
2016-11-26T08:46:20.703Z,21.98
2016-11-26T08:47:20.733Z,22.02
2016-11-26T08:48:20.449Z,22.07
2016-11-26T08:49:21.090Z,22.06
2016-11-26T08:50:20.814Z,22.05
2016-11-26T08:51:20.848Z,22.14
2016-11-26T08:52:20.872Z,22.02
2016-11-26T08:53:21.205Z,22.06
2016-11-26T08:54:21.225Z,22.06
2016-11-26T08:55:21.254Z,22.05
2016-11-26T08:56:21.291Z,22.02
2016-11-26T08:57:21.007Z,22.14
2016-11-26T08:58:21.332Z,22.06
2016-11-26T08:59:21.061Z,22.17
2016-11-26T09:00:21.090Z,22.15
2016-11-26T09:01:21.415Z,22.15
2016-11-26T09:02:21.451Z,22.15
2016-11-26T09:03:21.476Z,22.1
2016-11-26T09:04:21.200Z,22.14
2016-11-26T09:05:21.528Z,22.14
2016-11-26T09:06:21.259Z,22.18
2016-11-26T09:07:20.978Z,22.15
2016-11-26T09:08:21.312Z,22.25
2016-11-26T09:09:21.335Z,22.21
2016-11-26T09:10:21.681Z,22.21
2016-11-26T09:11:21.701Z,22.25
2016-11-26T09:12:21.425Z,22.25
2016-11-26T09:13:21.441Z,22.24
2016-11-26T09:14:21.184Z,22.33
2016-11-26T09:15:21.503Z,22.33
2016-11-26T09:16:21.228Z,22.28
2016-11-26T09:17:21.869Z,22.28
2016-11-26T09:18:21.901Z,22.24
2016-11-26T09:19:21.622Z,22.25
2016-11-26T09:20:21.651Z,22.4
2016-11-26T09:21:21.987Z,22.39
2016-11-26T09:22:21.696Z,22.36
2016-11-26T09:23:21.741Z,22.42
2016-11-26T09:24:21.456Z,22.42
2016-11-26T09:25:21.477Z,22.4
2016-11-26T09:26:21.815Z,22.39
2016-11-26T09:27:21.831Z,22.39
2016-11-26T09:28:21.895Z,22.37
2016-11-26T09:29:21.592Z,22.42
2016-11-26T09:30:21.929Z,22.45
2016-11-26T09:31:22.263Z,22.43
2016-11-26T09:32:22.275Z,22.43
2016-11-26T09:33:22.013Z,22.42
2016-11-26T09:34:21.728Z,22.46
2016-11-26T09:35:22.365Z,22.46
2016-11-26T09:36:22.390Z,22.55
2016-11-26T09:37:22.158Z,22.54
2016-11-26T09:38:22.147Z,22.54
2016-11-26T09:39:22.180Z,22.54
2016-11-26T09:40:22.521Z,22.57
2016-11-26T09:41:22.237Z,22.54
2016-11-26T09:42:22.250Z,22.6
2016-11-26T09:43:22.590Z,22.55
2016-11-26T09:44:22.311Z,22.62
2016-11-26T09:45:22.644Z,22.61
2016-11-26T09:46:22.677Z,22.58
2016-11-26T09:47:22.086Z,22.62
2016-11-26T09:48:22.762Z,22.64
2016-11-26T09:49:22.451Z,22.6
2016-11-26T09:50:22.480Z,22.61
2016-11-26T09:51:22.500Z,22.58
2016-11-26T09:52:22.538Z,22.61
2016-11-26T09:53:22.870Z,22.61
2016-11-26T09:54:22.595Z,22.65
2016-11-26T09:55:22.619Z,22.58
2016-11-26T09:56:22.952Z,22.61
2016-11-26T09:57:22.973Z,22.67
2016-11-26T09:58:22.702Z,22.72
2016-11-26T09:59:22.431Z,22.7
2016-11-26T10:00:23.059Z,22.65
2016-11-26T10:01:22.827Z,22.7
2016-11-26T10:02:22.509Z,22.67
2016-11-26T10:03:22.541Z,22.6
2016-11-26T10:04:22.870Z,22.68
2016-11-26T10:05:23.199Z,22.68
2016-11-26T10:06:22.932Z,22.68
2016-11-26T10:07:23.257Z,22.65
2016-11-26T10:08:22.981Z,22.68
2016-11-26T10:09:23.326Z,22.68
2016-11-26T10:10:23.355Z,22.73
2016-11-26T10:11:23.398Z,22.65
2016-11-26T10:12:23.100Z,22.73
2016-11-26T10:13:23.429Z,22.72
2016-11-26T10:14:23.158Z,22.73
2016-11-26T10:15:23.479Z,22.73
2016-11-26T10:16:23.208Z,22.79
2016-11-26T10:17:22.935Z,22.72
2016-11-26T10:18:23.565Z,22.72
2016-11-26T10:19:23.598Z,22.68
2016-11-26T10:20:23.315Z,22.72
2016-11-26T10:21:23.652Z,22.7
2016-11-26T10:22:23.684Z,22.72
2016-11-26T10:23:23.414Z,22.65
2016-11-26T10:24:23.434Z,22.72
2016-11-26T10:25:23.771Z,22.68
2016-11-26T10:26:23.188Z,22.68
2016-11-26T10:27:23.820Z,22.72
2016-11-26T10:28:23.546Z,22.76
2016-11-26T10:29:23.582Z,22.75
2016-11-26T10:30:23.906Z,22.75
2016-11-26T10:31:23.946Z,22.68
2016-11-26T10:32:23.665Z,22.72
2016-11-26T10:33:23.692Z,22.75
2016-11-26T10:34:23.717Z,22.79
2016-11-26T10:35:24.055Z,22.77
2016-11-26T10:36:24.084Z,22.7
2016-11-26T10:37:23.803Z,22.77
2016-11-26T10:38:23.529Z,22.76
2016-11-26T10:39:24.170Z,22.8
2016-11-26T10:40:23.890Z,22.77
2016-11-26T10:41:24.218Z,22.72
2016-11-26T10:42:23.942Z,22.72
2016-11-26T10:43:24.365Z,22.8
2016-11-26T10:44:24.283Z,22.79
2016-11-26T10:45:24.026Z,22.75
2016-11-26T10:46:24.359Z,22.79
2016-11-26T10:47:24.391Z,22.77
2016-11-26T10:48:24.116Z,22.82
2016-11-26T10:49:24.445Z,22.82
2016-11-26T10:50:24.171Z,22.8
2016-11-26T10:51:24.200Z,22.82
2016-11-26T10:52:24.227Z,22.83
2016-11-26T10:53:24.248Z,22.82
2016-11-26T10:54:24.289Z,22.83
2016-11-26T10:55:24.613Z,22.85
2016-11-26T10:56:24.373Z,22.8
2016-11-26T10:57:24.060Z,22.86
2016-11-26T10:58:24.391Z,22.8
2016-11-26T10:59:24.425Z,22.83
2016-11-26T11:00:24.753Z,22.79
2016-11-26T11:01:24.481Z,22.8
2016-11-26T11:02:24.802Z,22.8
2016-11-26T11:03:24.835Z,22.9
2016-11-26T11:04:24.867Z,22.86
2016-11-26T11:05:24.593Z,22.83
2016-11-26T11:06:24.625Z,22.83
2016-11-26T11:07:24.948Z,22.85
2016-11-26T11:08:24.978Z,22.83
2016-11-26T11:09:24.995Z,22.82
2016-11-26T11:10:25.033Z,22.86
2016-11-26T11:11:25.081Z,22.85
2016-11-26T11:12:24.794Z,22.86
2016-11-26T11:13:25.123Z,22.82
2016-11-26T11:14:24.853Z,22.9
2016-11-26T11:15:24.864Z,22.92
2016-11-26T11:16:24.916Z,22.92
2016-11-26T11:17:24.928Z,22.88
2016-11-26T11:18:24.645Z,22.85
2016-11-26T11:19:24.982Z,22.88
2016-11-26T11:20:25.012Z,22.86
2016-11-26T11:21:25.352Z,22.88
2016-11-26T11:22:25.073Z,22.91
2016-11-26T11:23:25.101Z,22.88
2016-11-26T11:24:25.134Z,22.94
2016-11-26T11:25:25.163Z,22.91
2016-11-26T11:26:25.180Z,22.92
2016-11-26T11:27:25.220Z,22.9
2016-11-26T11:28:25.257Z,22.91
2016-11-26T11:29:25.271Z,22.88
2016-11-26T11:30:25.299Z,22.94
2016-11-26T11:31:25.316Z,22.83
2016-11-26T11:32:25.360Z,22.91
2016-11-26T11:33:25.085Z,22.9
2016-11-26T11:34:25.418Z,22.9
2016-11-26T11:35:25.135Z,22.9
2016-11-26T11:36:25.772Z,22.9
2016-11-26T11:37:25.496Z,22.83
2016-11-26T11:38:25.833Z,22.86
2016-11-26T11:39:25.554Z,22.88
2016-11-26T11:40:25.578Z,22.88
2016-11-26T11:41:25.612Z,22.9
2016-11-26T11:42:25.637Z,22.88
2016-11-26T11:43:25.660Z,22.83
2016-11-26T11:44:25.689Z,22.9
2016-11-26T11:45:25.718Z,22.8
2016-11-26T11:46:25.446Z,22.82
2016-11-26T11:47:26.074Z,22.8
2016-11-26T11:48:26.103Z,22.85
2016-11-26T11:49:25.840Z,22.82
2016-11-26T11:50:26.165Z,22.88
2016-11-26T11:51:26.199Z,22.79
2016-11-26T11:52:26.218Z,22.79
2016-11-26T11:53:26.255Z,22.76
2016-11-26T11:54:25.978Z,22.77
2016-11-26T11:55:26.008Z,22.8
2016-11-26T11:56:26.038Z,22.7
2016-11-26T11:57:26.065Z,22.76
2016-11-26T11:58:26.090Z,22.77
2016-11-26T11:59:26.123Z,22.73
2016-11-26T12:00:26.443Z,22.82
2016-11-26T12:01:26.476Z,22.77
2016-11-26T12:02:26.210Z,22.75
2016-11-26T12:03:25.926Z,22.79
2016-11-26T12:04:26.572Z,22.76
2016-11-26T12:05:25.988Z,22.79
2016-11-26T12:06:26.624Z,22.77
2016-11-26T12:07:26.346Z,22.77
2016-11-26T12:08:26.375Z,22.76
2016-11-26T12:09:26.402Z,22.79
2016-11-26T12:10:26.439Z,22.85
2016-11-26T12:11:26.764Z,22.88
2016-11-26T12:12:26.793Z,22.9
2016-11-26T12:13:26.214Z,22.9
2016-11-26T12:14:26.546Z,22.82
2016-11-26T12:15:26.882Z,22.82
2016-11-26T12:16:26.599Z,22.88
2016-11-26T12:17:26.332Z,22.85
2016-11-26T12:18:26.345Z,22.85
2016-11-26T12:19:27.013Z,22.82
2016-11-26T12:20:26.419Z,22.86
2016-11-26T12:21:26.746Z,22.85
2016-11-26T12:22:26.772Z,22.85
2016-11-26T12:23:27.106Z,22.86
2016-11-26T12:24:26.829Z,22.94
2016-11-26T12:25:26.845Z,22.88
2016-11-26T12:26:26.878Z,22.83
2016-11-26T12:27:27.215Z,22.91
2016-11-26T12:28:27.250Z,22.95
2016-11-26T12:29:26.960Z,22.86
2016-11-26T12:30:26.698Z,22.91
2016-11-26T12:31:27.026Z,22.92
2016-11-26T12:32:27.047Z,23
2016-11-26T12:33:27.072Z,22.97
2016-11-26T12:34:27.105Z,22.94
2016-11-26T12:35:27.133Z,22.98
2016-11-26T12:36:27.170Z,22.94
2016-11-26T12:37:27.186Z,22.95
2016-11-26T12:38:27.527Z,22.97
2016-11-26T12:39:27.560Z,22.91
2016-11-26T12:40:27.588Z,22.91
2016-11-26T12:41:27.315Z,22.91
2016-11-26T12:42:27.331Z,22.95
2016-11-26T12:43:27.359Z,22.97
2016-11-26T12:44:27.097Z,22.9
2016-11-26T12:45:27.720Z,22.92
2016-11-26T12:46:27.445Z,22.83
2016-11-26T12:47:27.470Z,22.85
2016-11-26T12:48:27.506Z,22.85
2016-11-26T12:49:27.534Z,22.86
2016-11-26T12:50:27.872Z,22.86
2016-11-26T12:51:27.893Z,22.86
2016-11-26T12:52:27.927Z,22.82
2016-11-26T12:53:27.643Z,22.86
2016-11-26T12:54:27.367Z,22.9
2016-11-26T12:55:28.015Z,22.83
2016-11-26T12:56:28.029Z,22.83